Donnington, United Kingdom
Current Conditions -  °F | °C
As of 10:50 PM on Sunday 21 Dec 2014 (Local Time) from EGVN Reporting Station
Drizzle Drizzle  
Wind Chill: 11°   Ceiling: 700
Heat Index: 11°   Visibility: 3mi
Dew Point: 10°   Wind: 13mph
Humidity: 94%   Direction: 220°SW
Pressure: 30.12"   Gusts: NA
Location:  51.95°N, 1.72°W
Report Text: EGVN 212250Z 22011KT 5000 -DZ FEW005 OVC007 11/10 Q1020 BECMG 9999 NSW
Loading
Personal Weather Stations






























Interactive Weather Map New forecast layout! Learn more

10-Day Weather Forecast

Advertisements
Track Severe Weather on mobile